sensor_id;sensor_type;location;lat;lon;timestamp;P1;durP1;ratioP1;P2;durP2;ratioP2
46921;SDS011;44039;48.336;10.454;2022-07-12T00:01:34;68.95;;;65.22;;
46921;SDS011;44039;48.336;10.454;2022-07-12T00:04:01;68.53;;;64.75;;
46921;SDS011;44039;48.336;10.454;2022-07-12T00:06:28;68.20;;;64.53;;
46921;SDS011;44039;48.336;10.454;2022-07-12T00:08:55;71.13;;;66.85;;
46921;SDS011;44039;48.336;10.454;2022-07-12T00:11:22;66.40;;;62.90;;
46921;SDS011;44039;48.336;10.454;2022-07-12T00:13:48;69.03;;;65.45;;
46921;SDS011;44039;48.336;10.454;2022-07-12T00:16:15;68.05;;;64.35;;
46921;SDS011;44039;48.336;10.454;2022-07-12T00:18:42;71.32;;;67.07;;
46921;SDS011;44039;48.336;10.454;2022-07-12T00:21:08;71.53;;;67.85;;
46921;SDS011;44039;48.336;10.454;2022-07-12T00:23:35;68.13;;;64.78;;
46921;SDS011;44039;48.336;10.454;2022-07-12T00:26:02;71.40;;;67.63;;
46921;SDS011;44039;48.336;10.454;2022-07-12T00:28:31;70.57;;;67.05;;
46921;SDS011;44039;48.336;10.454;2022-07-12T00:30:58;70.53;;;66.85;;
46921;SDS011;44039;48.336;10.454;2022-07-12T00:33:25;70.60;;;67.05;;
46921;SDS011;44039;48.336;10.454;2022-07-12T00:35:52;72.30;;;68.50;;
46921;SDS011;44039;48.336;10.454;2022-07-12T00:38:19;72.47;;;68.68;;
46921;SDS011;44039;48.336;10.454;2022-07-12T00:40:46;70.07;;;66.55;;
46921;SDS011;44039;48.336;10.454;2022-07-12T00:43:13;67.15;;;63.78;;
46921;SDS011;44039;48.336;10.454;2022-07-12T00:45:39;69.22;;;65.53;;
46921;SDS011;44039;48.336;10.454;2022-07-12T00:48:06;68.97;;;65.38;;
46921;SDS011;44039;48.336;10.454;2022-07-12T00:50:34;69.82;;;66.22;;
46921;SDS011;44039;48.336;10.454;2022-07-12T00:53:01;69.55;;;65.65;;
46921;SDS011;44039;48.336;10.454;2022-07-12T00:55:28;71.45;;;67.38;;
46921;SDS011;44039;48.336;10.454;2022-07-12T00:57:55;68.65;;;65.22;;
46921;SDS011;44039;48.336;10.454;2022-07-12T01:00:23;70.20;;;66.50;;
46921;SDS011;44039;48.336;10.454;2022-07-12T01:02:52;66.45;;;62.95;;
46921;SDS011;44039;48.336;10.454;2022-07-12T01:05:20;67.85;;;64.07;;
46921;SDS011;44039;48.336;10.454;2022-07-12T01:07:47;67.35;;;63.90;;
46921;SDS011;44039;48.336;10.454;2022-07-12T01:10:16;67.75;;;64.32;;
46921;SDS011;44039;48.336;10.454;2022-07-12T01:12:42;66.68;;;63.28;;
46921;SDS011;44039;48.336;10.454;2022-07-12T01:15:10;67.75;;;64.05;;
46921;SDS011;44039;48.336;10.454;2022-07-12T01:17:37;66.68;;;63.35;;
46921;SDS011;44039;48.336;10.454;2022-07-12T01:20:05;69.35;;;65.72;;
46921;SDS011;44039;48.336;10.454;2022-07-12T01:22:34;67.68;;;63.88;;
46921;SDS011;44039;48.336;10.454;2022-07-12T01:25:03;67.85;;;64.22;;
46921;SDS011;44039;48.336;10.454;2022-07-12T01:27:30;68.32;;;64.43;;
46921;SDS011;44039;48.336;10.454;2022-07-12T01:29:57;68.45;;;64.50;;
46921;SDS011;44039;48.336;10.454;2022-07-12T01:32:24;69.32;;;65.43;;
46921;SDS011;44039;48.336;10.454;2022-07-12T01:34:52;68.88;;;64.65;;
46921;SDS011;44039;48.336;10.454;2022-07-12T01:37:19;65.63;;;62.05;;
46921;SDS011;44039;48.336;10.454;2022-07-12T01:39:48;69.57;;;65.43;;
46921;SDS011;44039;48.336;10.454;2022-07-12T01:42:17;67.10;;;63.55;;
46921;SDS011;44039;48.336;10.454;2022-07-12T01:44:43;67.65;;;64.03;;
46921;SDS011;44039;48.336;10.454;2022-07-12T01:47:11;66.35;;;62.60;;
46921;SDS011;44039;48.336;10.454;2022-07-12T01:49:38;64.97;;;61.67;;
46921;SDS011;44039;48.336;10.454;2022-07-12T01:52:04;68.95;;;64.80;;
46921;SDS011;44039;48.336;10.454;2022-07-12T01:54:31;66.88;;;63.10;;
46921;SDS011;44039;48.336;10.454;2022-07-12T01:56:59;66.40;;;62.70;;
46921;SDS011;44039;48.336;10.454;2022-07-12T01:59:26;67.57;;;63.50;;
46921;SDS011;44039;48.336;10.454;2022-07-12T02:01:52;65.28;;;61.67;;
46921;SDS011;44039;48.336;10.454;2022-07-12T02:04:20;66.05;;;62.42;;
46921;SDS011;44039;48.336;10.454;2022-07-12T02:06:47;66.28;;;62.67;;
46921;SDS011;44039;48.336;10.454;2022-07-12T02:09:14;64.68;;;60.97;;
46921;SDS011;44039;48.336;10.454;2022-07-12T02:11:42;65.15;;;61.40;;
46921;SDS011;44039;48.336;10.454;2022-07-12T02:14:10;67.05;;;63.03;;
46921;SDS011;44039;48.336;10.454;2022-07-12T02:16:39;64.97;;;61.58;;
46921;SDS011;44039;48.336;10.454;2022-07-12T02:19:06;66.72;;;62.83;;
46921;SDS011;44039;48.336;10.454;2022-07-12T02:21:33;65.13;;;61.42;;
46921;SDS011;44039;48.336;10.454;2022-07-12T02:24:00;64.43;;;60.70;;
46921;SDS011;44039;48.336;10.454;2022-07-12T02:26:27;66.05;;;62.28;;
46921;SDS011;44039;48.336;10.454;2022-07-12T02:28:54;66.18;;;62.33;;
46921;SDS011;44039;48.336;10.454;2022-07-12T02:31:21;64.13;;;60.53;;
46921;SDS011;44039;48.336;10.454;2022-07-12T02:33:48;64.38;;;60.97;;
46921;SDS011;44039;48.336;10.454;2022-07-12T02:36:15;66.25;;;62.42;;
46921;SDS011;44039;48.336;10.454;2022-07-12T02:38:42;66.53;;;63.00;;
46921;SDS011;44039;48.336;10.454;2022-07-12T02:41:08;67.43;;;63.30;;
46921;SDS011;44039;48.336;10.454;2022-07-12T02:43:35;64.80;;;61.40;;
46921;SDS011;44039;48.336;10.454;2022-07-12T02:46:06;63.65;;;60.22;;
46921;SDS011;44039;48.336;10.454;2022-07-12T02:48:34;62.95;;;59.55;;
46921;SDS011;44039;48.336;10.454;2022-07-12T02:51:02;64.00;;;60.45;;
46921;SDS011;44039;48.336;10.454;2022-07-12T02:53:30;64.45;;;60.95;;
46921;SDS011;44039;48.336;10.454;2022-07-12T02:56:03;65.13;;;61.07;;
46921;SDS011;44039;48.336;10.454;2022-07-12T02:58:30;63.60;;;59.88;;
46921;SDS011;44039;48.336;10.454;2022-07-12T03:00:57;65.93;;;61.90;;
46921;SDS011;44039;48.336;10.454;2022-07-12T03:03:23;64.47;;;60.83;;
46921;SDS011;44039;48.336;10.454;2022-07-12T03:05:50;64.15;;;60.65;;
46921;SDS011;44039;48.336;10.454;2022-07-12T03:08:17;65.93;;;62.13;;
46921;SDS011;44039;48.336;10.454;2022-07-12T03:10:44;65.22;;;61.60;;
46921;SDS011;44039;48.336;10.454;2022-07-12T03:13:10;66.45;;;62.40;;
46921;SDS011;44039;48.336;10.454;2022-07-12T03:15:37;65.65;;;62.05;;
46921;SDS011;44039;48.336;10.454;2022-07-12T03:18:04;64.88;;;61.38;;
46921;SDS011;44039;48.336;10.454;2022-07-12T03:20:31;66.32;;;62.63;;
46921;SDS011;44039;48.336;10.454;2022-07-12T03:22:58;67.97;;;64.18;;
46921;SDS011;44039;48.336;10.454;2022-07-12T03:25:24;66.90;;;63.35;;
46921;SDS011;44039;48.336;10.454;2022-07-12T03:27:51;68.53;;;64.72;;
46921;SDS011;44039;48.336;10.454;2022-07-12T03:30:18;69.32;;;65.28;;
46921;SDS011;44039;48.336;10.454;2022-07-12T03:32:44;63.80;;;60.25;;
46921;SDS011;44039;48.336;10.454;2022-07-12T03:35:11;65.00;;;61.45;;
46921;SDS011;44039;48.336;10.454;2022-07-12T03:37:48;64.15;;;60.45;;
46921;SDS011;44039;48.336;10.454;2022-07-12T03:40:16;64.30;;;60.80;;
46921;SDS011;44039;48.336;10.454;2022-07-12T03:42:45;64.28;;;60.53;;
46921;SDS011;44039;48.336;10.454;2022-07-12T03:45:13;62.50;;;59.10;;
46921;SDS011;44039;48.336;10.454;2022-07-12T03:47:40;63.92;;;60.22;;
46921;SDS011;44039;48.336;10.454;2022-07-12T03:50:09;63.92;;;60.22;;
46921;SDS011;44039;48.336;10.454;2022-07-12T03:52:39;61.72;;;58.30;;
46921;SDS011;44039;48.336;10.454;2022-07-12T03:55:07;65.43;;;61.83;;
46921;SDS011;44039;48.336;10.454;2022-07-12T03:57:35;67.25;;;63.70;;
46921;SDS011;44039;48.336;10.454;2022-07-12T04:00:03;66.95;;;63.20;;
46921;SDS011;44039;48.336;10.454;2022-07-12T04:02:31;67.00;;;63.33;;
46921;SDS011;44039;48.336;10.454;2022-07-12T04:04:58;66.38;;;62.97;;
46921;SDS011;44039;48.336;10.454;2022-07-12T04:07:25;66.95;;;63.30;;
46921;SDS011;44039;48.336;10.454;2022-07-12T04:09:51;70.45;;;66.47;;
46921;SDS011;44039;48.336;10.454;2022-07-12T04:12:18;71.50;;;67.45;;
46921;SDS011;44039;48.336;10.454;2022-07-12T04:14:45;70.18;;;66.05;;
46921;SDS011;44039;48.336;10.454;2022-07-12T04:17:12;68.00;;;64.60;;
46921;SDS011;44039;48.336;10.454;2022-07-12T04:19:38;68.10;;;64.22;;
46921;SDS011;44039;48.336;10.454;2022-07-12T04:22:05;70.10;;;66.40;;
46921;SDS011;44039;48.336;10.454;2022-07-12T04:24:32;69.28;;;65.57;;
46921;SDS011;44039;48.336;10.454;2022-07-12T04:26:59;73.28;;;69.32;;
46921;SDS011;44039;48.336;10.454;2022-07-12T04:29:26;74.35;;;70.13;;
46921;SDS011;44039;48.336;10.454;2022-07-12T04:31:53;76.10;;;72.00;;
46921;SDS011;44039;48.336;10.454;2022-07-12T04:34:19;77.65;;;73.25;;
46921;SDS011;44039;48.336;10.454;2022-07-12T04:36:47;75.63;;;71.55;;
46921;SDS011;44039;48.336;10.454;2022-07-12T04:39:15;80.57;;;75.72;;
46921;SDS011;44039;48.336;10.454;2022-07-12T04:41:42;75.50;;;71.18;;
46921;SDS011;44039;48.336;10.454;2022-07-12T04:44:08;82.50;;;77.85;;
46921;SDS011;44039;48.336;10.454;2022-07-12T04:46:36;76.22;;;71.82;;
46921;SDS011;44039;48.336;10.454;2022-07-12T04:49:03;86.95;;;81.32;;
46921;SDS011;44039;48.336;10.454;2022-07-12T04:51:30;80.43;;;76.22;;
46921;SDS011;44039;48.336;10.454;2022-07-12T04:53:57;81.63;;;77.43;;
46921;SDS011;44039;48.336;10.454;2022-07-12T04:56:23;84.30;;;79.80;;
46921;SDS011;44039;48.336;10.454;2022-07-12T04:58:50;83.22;;;78.97;;
46921;SDS011;44039;48.336;10.454;2022-07-12T05:01:25;76.78;;;73.00;;
46921;SDS011;44039;48.336;10.454;2022-07-12T05:03:51;78.68;;;74.57;;
46921;SDS011;44039;48.336;10.454;2022-07-12T05:06:18;79.22;;;75.25;;
46921;SDS011;44039;48.336;10.454;2022-07-12T05:08:45;79.03;;;75.22;;
46921;SDS011;44039;48.336;10.454;2022-07-12T05:11:12;80.78;;;76.60;;
46921;SDS011;44039;48.336;10.454;2022-07-12T05:13:40;82.30;;;78.43;;
46921;SDS011;44039;48.336;10.454;2022-07-12T05:16:07;82.32;;;78.28;;
46921;SDS011;44039;48.336;10.454;2022-07-12T05:18:35;83.30;;;79.28;;
46921;SDS011;44039;48.336;10.454;2022-07-12T05:21:02;88.40;;;84.15;;
46921;SDS011;44039;48.336;10.454;2022-07-12T05:23:30;91.28;;;86.90;;
46921;SDS011;44039;48.336;10.454;2022-07-12T05:25:57;91.47;;;87.07;;
46921;SDS011;44039;48.336;10.454;2022-07-12T05:28:23;92.40;;;87.82;;
46921;SDS011;44039;48.336;10.454;2022-07-12T05:30:50;93.82;;;89.32;;
46921;SDS011;44039;48.336;10.454;2022-07-12T05:33:17;91.50;;;87.30;;
46921;SDS011;44039;48.336;10.454;2022-07-12T05:35:44;94.57;;;90.28;;
46921;SDS011;44039;48.336;10.454;2022-07-12T05:38:11;97.28;;;92.68;;
46921;SDS011;44039;48.336;10.454;2022-07-12T05:40:38;97.40;;;93.25;;
46921;SDS011;44039;48.336;10.454;2022-07-12T05:43:05;102.53;;;97.68;;
46921;SDS011;44039;48.336;10.454;2022-07-12T05:45:31;100.18;;;95.55;;
46921;SDS011;44039;48.336;10.454;2022-07-12T05:47:58;102.20;;;97.70;;
46921;SDS011;44039;48.336;10.454;2022-07-12T05:50:25;107.00;;;102.15;;
46921;SDS011;44039;48.336;10.454;2022-07-12T05:52:51;116.57;;;111.55;;
46921;SDS011;44039;48.336;10.454;2022-07-12T05:55:37;136.70;;;129.02;;
46921;SDS011;44039;48.336;10.454;2022-07-12T05:58:03;135.60;;;129.80;;
46921;SDS011;44039;48.336;10.454;2022-07-12T06:00:30;138.43;;;132.88;;
46921;SDS011;44039;48.336;10.454;2022-07-12T06:02:59;143.13;;;137.20;;
46921;SDS011;44039;48.336;10.454;2022-07-12T06:05:26;149.30;;;143.23;;
46921;SDS011;44039;48.336;10.454;2022-07-12T06:07:53;151.38;;;145.45;;
46921;SDS011;44039;48.336;10.454;2022-07-12T06:10:20;147.93;;;141.93;;
46921;SDS011;44039;48.336;10.454;2022-07-12T06:12:47;144.98;;;139.10;;
46921;SDS011;44039;48.336;10.454;2022-07-12T06:15:15;148.18;;;142.23;;
46921;SDS011;44039;48.336;10.454;2022-07-12T06:17:42;147.35;;;141.20;;
46921;SDS011;44039;48.336;10.454;2022-07-12T06:20:10;145.27;;;139.15;;
46921;SDS011;44039;48.336;10.454;2022-07-12T06:22:38;148.10;;;141.70;;
46921;SDS011;44039;48.336;10.454;2022-07-12T06:25:05;148.52;;;142.48;;
46921;SDS011;44039;48.336;10.454;2022-07-12T06:27:53;142.32;;;136.48;;
46921;SDS011;44039;48.336;10.454;2022-07-12T06:30:20;143.60;;;137.48;;
46921;SDS011;44039;48.336;10.454;2022-07-12T06:32:48;147.57;;;141.68;;
46921;SDS011;44039;48.336;10.454;2022-07-12T06:35:15;153.50;;;147.50;;
46921;SDS011;44039;48.336;10.454;2022-07-12T06:37:42;161.90;;;155.52;;
46921;SDS011;44039;48.336;10.454;2022-07-12T06:40:10;162.93;;;156.90;;
46921;SDS011;44039;48.336;10.454;2022-07-12T06:42:37;165.18;;;158.93;;
46921;SDS011;44039;48.336;10.454;2022-07-12T06:45:04;160.02;;;153.77;;
46921;SDS011;44039;48.336;10.454;2022-07-12T06:47:31;168.95;;;162.63;;
46921;SDS011;44039;48.336;10.454;2022-07-12T06:49:58;179.65;;;173.13;;
46921;SDS011;44039;48.336;10.454;2022-07-12T06:52:44;178.57;;;172.02;;
46921;SDS011;44039;48.336;10.454;2022-07-12T06:55:31;185.95;;;179.32;;
46921;SDS011;44039;48.336;10.454;2022-07-12T06:58:18;181.90;;;175.18;;
46921;SDS011;44039;48.336;10.454;2022-07-12T07:01:05;185.05;;;178.23;;
46921;SDS011;44039;48.336;10.454;2022-07-12T07:03:52;193.98;;;186.98;;
46921;SDS011;44039;48.336;10.454;2022-07-12T07:06:39;189.88;;;182.77;;
46921;SDS011;44039;48.336;10.454;2022-07-12T07:09:26;192.35;;;185.02;;
46921;SDS011;44039;48.336;10.454;2022-07-12T07:12:13;185.90;;;179.00;;
46921;SDS011;44039;48.336;10.454;2022-07-12T07:15:00;186.13;;;179.23;;
46921;SDS011;44039;48.336;10.454;2022-07-12T07:17:47;189.98;;;183.00;;
46921;SDS011;44039;48.336;10.454;2022-07-12T07:20:35;193.20;;;186.43;;
46921;SDS011;44039;48.336;10.454;2022-07-12T07:23:21;197.25;;;190.15;;
46921;SDS011;44039;48.336;10.454;2022-07-12T07:26:09;205.52;;;198.38;;
46921;SDS011;44039;48.336;10.454;2022-07-12T07:28:56;210.90;;;203.00;;
46921;SDS011;44039;48.336;10.454;2022-07-12T07:32:01;217.57;;;209.98;;
46921;SDS011;44039;48.336;10.454;2022-07-12T07:34:49;208.60;;;201.30;;
46921;SDS011;44039;48.336;10.454;2022-07-12T07:37:36;211.05;;;203.73;;
46921;SDS011;44039;48.336;10.454;2022-07-12T07:40:23;206.27;;;199.13;;
46921;SDS011;44039;48.336;10.454;2022-07-12T07:43:10;208.15;;;200.82;;
46921;SDS011;44039;48.336;10.454;2022-07-12T07:45:58;207.73;;;200.43;;
46921;SDS011;44039;48.336;10.454;2022-07-12T07:48:45;199.68;;;192.52;;
46921;SDS011;44039;48.336;10.454;2022-07-12T07:51:32;198.02;;;191.05;;
46921;SDS011;44039;48.336;10.454;2022-07-12T07:54:20;192.95;;;185.98;;
46921;SDS011;44039;48.336;10.454;2022-07-12T07:57:07;193.10;;;185.55;;
46921;SDS011;44039;48.336;10.454;2022-07-12T07:59:53;195.55;;;187.85;;
46921;SDS011;44039;48.336;10.454;2022-07-12T08:02:41;192.65;;;185.55;;
46921;SDS011;44039;48.336;10.454;2022-07-12T08:05:28;189.50;;;182.73;;
46921;SDS011;44039;48.336;10.454;2022-07-12T08:08:15;187.52;;;180.60;;
46921;SDS011;44039;48.336;10.454;2022-07-12T08:11:02;186.00;;;179.32;;
46921;SDS011;44039;48.336;10.454;2022-07-12T08:13:50;182.82;;;176.02;;
46921;SDS011;44039;48.336;10.454;2022-07-12T08:16:37;184.52;;;177.82;;
46921;SDS011;44039;48.336;10.454;2022-07-12T08:19:24;181.77;;;175.10;;
46921;SDS011;44039;48.336;10.454;2022-07-12T08:22:12;165.88;;;159.23;;
46921;SDS011;44039;48.336;10.454;2022-07-12T08:24:59;170.93;;;164.25;;
46921;SDS011;44039;48.336;10.454;2022-07-12T08:27:46;181.15;;;174.05;;
46921;SDS011;44039;48.336;10.454;2022-07-12T08:30:33;188.65;;;181.20;;
46921;SDS011;44039;48.336;10.454;2022-07-12T08:33:30;193.52;;;186.48;;
46921;SDS011;44039;48.336;10.454;2022-07-12T08:36:17;191.35;;;184.25;;
46921;SDS011;44039;48.336;10.454;2022-07-12T08:39:04;204.63;;;196.65;;
46921;SDS011;44039;48.336;10.454;2022-07-12T08:41:51;208.25;;;201.07;;
46921;SDS011;44039;48.336;10.454;2022-07-12T08:44:38;189.38;;;182.57;;
46921;SDS011;44039;48.336;10.454;2022-07-12T08:47:25;184.95;;;178.13;;
46921;SDS011;44039;48.336;10.454;2022-07-12T08:53:00;216.05;;;208.15;;
46921;SDS011;44039;48.336;10.454;2022-07-12T08:55:47;213.57;;;205.68;;
46921;SDS011;44039;48.336;10.454;2022-07-12T08:58:34;220.85;;;212.82;;
46921;SDS011;44039;48.336;10.454;2022-07-12T09:01:38;214.23;;;206.30;;
46921;SDS011;44039;48.336;10.454;2022-07-12T09:04:26;188.30;;;181.48;;
46921;SDS011;44039;48.336;10.454;2022-07-12T09:07:14;182.32;;;175.63;;
46921;SDS011;44039;48.336;10.454;2022-07-12T09:10:05;200.98;;;193.95;;
46921;SDS011;44039;48.336;10.454;2022-07-12T09:12:53;219.98;;;212.25;;
46921;SDS011;44039;48.336;10.454;2022-07-12T09:15:40;214.68;;;207.10;;
46921;SDS011;44039;48.336;10.454;2022-07-12T09:18:28;202.43;;;194.90;;
46921;SDS011;44039;48.336;10.454;2022-07-12T09:21:22;193.30;;;185.95;;
46921;SDS011;44039;48.336;10.454;2022-07-12T09:24:10;179.45;;;172.48;;
46921;SDS011;44039;48.336;10.454;2022-07-12T09:27:03;165.43;;;159.15;;
46921;SDS011;44039;48.336;10.454;2022-07-12T09:29:51;159.73;;;153.65;;
46921;SDS011;44039;48.336;10.454;2022-07-12T09:38:54;170.13;;;161.93;;
46921;SDS011;44039;48.336;10.454;2022-07-12T09:41:47;160.23;;;154.10;;
46921;SDS011;44039;48.336;10.454;2022-07-12T09:44:35;166.48;;;160.30;;
46921;SDS011;44039;48.336;10.454;2022-07-12T09:47:23;195.75;;;188.73;;
46921;SDS011;44039;48.336;10.454;2022-07-12T09:50:12;209.65;;;202.20;;
46921;SDS011;44039;48.336;10.454;2022-07-12T09:53:00;213.70;;;206.10;;
46921;SDS011;44039;48.336;10.454;2022-07-12T09:55:50;216.73;;;209.07;;
46921;SDS011;44039;48.336;10.454;2022-07-12T09:58:53;231.88;;;223.57;;
46921;SDS011;44039;48.336;10.454;2022-07-12T10:01:42;211.18;;;204.10;;
46921;SDS011;44039;48.336;10.454;2022-07-12T10:04:30;196.15;;;189.32;;
46921;SDS011;44039;48.336;10.454;2022-07-12T10:07:19;187.43;;;180.60;;
46921;SDS011;44039;48.336;10.454;2022-07-12T10:10:07;178.25;;;171.55;;
46921;SDS011;44039;48.336;10.454;2022-07-12T10:12:55;174.98;;;167.57;;
46921;SDS011;44039;48.336;10.454;2022-07-12T10:15:43;191.98;;;184.57;;
46921;SDS011;44039;48.336;10.454;2022-07-12T10:18:32;195.68;;;188.25;;
46921;SDS011;44039;48.336;10.454;2022-07-12T10:21:20;198.75;;;191.00;;
46921;SDS011;44039;48.336;10.454;2022-07-12T10:24:53;210.98;;;203.57;;
46921;SDS011;44039;48.336;10.454;2022-07-12T10:27:27;205.73;;;198.43;;
46921;SDS011;44039;48.336;10.454;2022-07-12T10:30:17;198.35;;;191.55;;
46921;SDS011;44039;48.336;10.454;2022-07-12T10:33:05;192.68;;;185.88;;
46921;SDS011;44039;48.336;10.454;2022-07-12T10:36:10;199.50;;;191.80;;
46921;SDS011;44039;48.336;10.454;2022-07-12T10:39:19;221.65;;;213.18;;
46921;SDS011;44039;48.336;10.454;2022-07-12T10:42:14;245.95;;;236.95;;
46921;SDS011;44039;48.336;10.454;2022-07-12T10:45:12;250.38;;;241.95;;
46921;SDS011;44039;48.336;10.454;2022-07-12T10:50:59;262.63;;;253.48;;
46921;SDS011;44039;48.336;10.454;2022-07-12T10:54:04;248.77;;;240.50;;
46921;SDS011;44039;48.336;10.454;2022-07-12T10:57:06;233.13;;;224.80;;
46921;SDS011;44039;48.336;10.454;2022-07-12T10:59:54;221.05;;;213.18;;
46921;SDS011;44039;48.336;10.454;2022-07-12T11:02:42;229.57;;;221.80;;
46921;SDS011;44039;48.336;10.454;2022-07-12T11:05:30;237.63;;;229.63;;
46921;SDS011;44039;48.336;10.454;2022-07-12T11:08:17;243.60;;;235.57;;
46921;SDS011;44039;48.336;10.454;2022-07-12T11:11:04;238.30;;;230.35;;
46921;SDS011;44039;48.336;10.454;2022-07-12T11:13:51;243.25;;;235.07;;
46921;SDS011;44039;48.336;10.454;2022-07-12T11:16:43;244.50;;;236.20;;
46921;SDS011;44039;48.336;10.454;2022-07-12T11:19:34;250.35;;;241.52;;
46921;SDS011;44039;48.336;10.454;2022-07-12T11:22:24;254.00;;;245.02;;
46921;SDS011;44039;48.336;10.454;2022-07-12T11:25:12;242.82;;;234.60;;
46921;SDS011;44039;48.336;10.454;2022-07-12T11:27:59;247.02;;;238.63;;
46921;SDS011;44039;48.336;10.454;2022-07-12T11:30:50;247.15;;;238.85;;
46921;SDS011;44039;48.336;10.454;2022-07-12T11:33:39;237.35;;;229.57;;
46921;SDS011;44039;48.336;10.454;2022-07-12T11:36:27;241.05;;;232.13;;
46921;SDS011;44039;48.336;10.454;2022-07-12T11:39:16;230.63;;;222.15;;
46921;SDS011;44039;48.336;10.454;2022-07-12T11:42:03;236.82;;;227.98;;
46921;SDS011;44039;48.336;10.454;2022-07-12T11:44:51;224.45;;;216.10;;
46921;SDS011;44039;48.336;10.454;2022-07-12T11:47:39;217.32;;;209.27;;
46921;SDS011;44039;48.336;10.454;2022-07-12T11:50:26;231.70;;;223.50;;
46921;SDS011;44039;48.336;10.454;2022-07-12T11:53:24;234.13;;;226.13;;
46921;SDS011;44039;48.336;10.454;2022-07-12T11:56:12;236.77;;;228.52;;
46921;SDS011;44039;48.336;10.454;2022-07-12T11:58:59;250.57;;;241.30;;
46921;SDS011;44039;48.336;10.454;2022-07-12T12:02:01;240.43;;;231.55;;
46921;SDS011;44039;48.336;10.454;2022-07-12T12:04:51;243.63;;;235.52;;
46921;SDS011;44039;48.336;10.454;2022-07-12T12:07:40;235.38;;;227.38;;
46921;SDS011;44039;48.336;10.454;2022-07-12T12:10:27;233.10;;;225.25;;
46921;SDS011;44039;48.336;10.454;2022-07-12T12:13:15;251.07;;;242.52;;
46921;SDS011;44039;48.336;10.454;2022-07-12T12:16:04;244.82;;;236.20;;
46921;SDS011;44039;48.336;10.454;2022-07-12T12:18:55;249.25;;;239.93;;
46921;SDS011;44039;48.336;10.454;2022-07-12T12:21:42;231.80;;;223.30;;
46921;SDS011;44039;48.336;10.454;2022-07-12T12:24:29;226.00;;;217.52;;
46921;SDS011;44039;48.336;10.454;2022-07-12T12:27:23;225.05;;;216.65;;
46921;SDS011;44039;48.336;10.454;2022-07-12T12:32:59;219.93;;;212.43;;
46921;SDS011;44039;48.336;10.454;2022-07-12T12:35:53;233.70;;;225.38;;
46921;SDS011;44039;48.336;10.454;2022-07-12T12:38:40;235.40;;;226.77;;
46921;SDS011;44039;48.336;10.454;2022-07-12T12:41:29;237.35;;;228.52;;
46921;SDS011;44039;48.336;10.454;2022-07-12T12:44:24;236.52;;;228.50;;
46921;SDS011;44039;48.336;10.454;2022-07-12T12:47:11;237.85;;;229.90;;
46921;SDS011;44039;48.336;10.454;2022-07-12T12:50:16;251.30;;;242.50;;
46921;SDS011;44039;48.336;10.454;2022-07-12T12:53:07;252.32;;;243.63;;
46921;SDS011;44039;48.336;10.454;2022-07-12T12:56:00;255.70;;;247.23;;
46921;SDS011;44039;48.336;10.454;2022-07-12T12:58:48;241.63;;;233.27;;
46921;SDS011;44039;48.336;10.454;2022-07-12T13:01:35;238.43;;;230.52;;
46921;SDS011;44039;48.336;10.454;2022-07-12T13:04:22;245.88;;;237.75;;
46921;SDS011;44039;48.336;10.454;2022-07-12T13:07:09;255.30;;;247.00;;
46921;SDS011;44039;48.336;10.454;2022-07-12T13:09:59;253.50;;;244.48;;
46921;SDS011;44039;48.336;10.454;2022-07-12T13:12:46;238.90;;;230.63;;
46921;SDS011;44039;48.336;10.454;2022-07-12T13:15:34;239.60;;;231.20;;
46921;SDS011;44039;48.336;10.454;2022-07-12T13:18:21;240.18;;;231.68;;
46921;SDS011;44039;48.336;10.454;2022-07-12T13:21:08;241.30;;;232.85;;
46921;SDS011;44039;48.336;10.454;2022-07-12T13:23:55;242.00;;;233.57;;
46921;SDS011;44039;48.336;10.454;2022-07-12T13:26:42;227.02;;;219.57;;
46921;SDS011;44039;48.336;10.454;2022-07-12T13:29:30;227.30;;;219.52;;
46921;SDS011;44039;48.336;10.454;2022-07-12T13:32:17;227.40;;;219.95;;
46921;SDS011;44039;48.336;10.454;2022-07-12T13:35:04;229.25;;;221.25;;
46921;SDS011;44039;48.336;10.454;2022-07-12T13:37:53;238.73;;;230.85;;
46921;SDS011;44039;48.336;10.454;2022-07-12T13:40:41;239.23;;;231.38;;
46921;SDS011;44039;48.336;10.454;2022-07-12T13:43:28;242.63;;;234.60;;
46921;SDS011;44039;48.336;10.454;2022-07-12T13:46:15;245.48;;;237.25;;
46921;SDS011;44039;48.336;10.454;2022-07-12T13:49:03;237.30;;;228.68;;
46921;SDS011;44039;48.336;10.454;2022-07-12T13:51:50;234.93;;;227.25;;
46921;SDS011;44039;48.336;10.454;2022-07-12T13:54:37;228.20;;;220.80;;
46921;SDS011;44039;48.336;10.454;2022-07-12T13:57:24;236.35;;;228.68;;
46921;SDS011;44039;48.336;10.454;2022-07-12T14:00:12;244.20;;;235.77;;
46921;SDS011;44039;48.336;10.454;2022-07-12T14:03:02;244.75;;;236.57;;
46921;SDS011;44039;48.336;10.454;2022-07-12T14:05:49;243.18;;;235.07;;
46921;SDS011;44039;48.336;10.454;2022-07-12T14:08:36;252.20;;;243.90;;
46921;SDS011;44039;48.336;10.454;2022-07-12T14:11:23;250.63;;;242.20;;
46921;SDS011;44039;48.336;10.454;2022-07-12T14:14:11;240.50;;;232.57;;
46921;SDS011;44039;48.336;10.454;2022-07-12T14:17:04;235.95;;;228.25;;
46921;SDS011;44039;48.336;10.454;2022-07-12T14:19:51;228.23;;;220.77;;
46921;SDS011;44039;48.336;10.454;2022-07-12T14:22:38;229.30;;;221.88;;
46921;SDS011;44039;48.336;10.454;2022-07-12T14:25:25;239.93;;;231.85;;
46921;SDS011;44039;48.336;10.454;2022-07-12T14:28:13;236.40;;;228.43;;
46921;SDS011;44039;48.336;10.454;2022-07-12T14:31:00;226.25;;;218.55;;
46921;SDS011;44039;48.336;10.454;2022-07-12T14:33:47;232.68;;;224.88;;
46921;SDS011;44039;48.336;10.454;2022-07-12T14:36:34;231.50;;;223.70;;
46921;SDS011;44039;48.336;10.454;2022-07-12T14:39:21;235.60;;;227.70;;
46921;SDS011;44039;48.336;10.454;2022-07-12T14:42:08;232.43;;;224.63;;
46921;SDS011;44039;48.336;10.454;2022-07-12T14:44:55;227.45;;;220.00;;
46921;SDS011;44039;48.336;10.454;2022-07-12T14:47:42;224.88;;;217.57;;
46921;SDS011;44039;48.336;10.454;2022-07-12T14:50:29;227.25;;;219.70;;
46921;SDS011;44039;48.336;10.454;2022-07-12T14:53:16;226.10;;;218.45;;
46921;SDS011;44039;48.336;10.454;2022-07-12T14:56:04;222.02;;;214.50;;
46921;SDS011;44039;48.336;10.454;2022-07-12T14:58:51;226.55;;;218.45;;
46921;SDS011;44039;48.336;10.454;2022-07-12T15:01:38;222.02;;;214.55;;
46921;SDS011;44039;48.336;10.454;2022-07-12T15:04:25;215.82;;;208.32;;
46921;SDS011;44039;48.336;10.454;2022-07-12T15:07:12;206.20;;;199.05;;
46921;SDS011;44039;48.336;10.454;2022-07-12T15:10:00;203.55;;;196.55;;
46921;SDS011;44039;48.336;10.454;2022-07-12T15:12:47;201.73;;;194.80;;